sensor_id;sensor_type;location;lat;lon;timestamp;pressure;altitude;pressure_sealevel;temperature;humidity
13241;BME280;6687;47.790;7.322;2022-08-14T06:13:26;98206.13;;;18.92;51.66
13241;BME280;6687;47.790;7.322;2022-08-14T06:15:53;98209.34;;;19.38;45.90
13241;BME280;6687;47.790;7.322;2022-08-14T06:18:20;98212.66;;;19.41;47.09
13241;BME280;6687;47.790;7.322;2022-08-14T06:20:46;98208.88;;;19.47;45.75
13241;BME280;6687;47.790;7.322;2022-08-14T06:23:13;98202.06;;;19.62;46.04
13241;BME280;6687;47.790;7.322;2022-08-14T06:25:40;98210.25;;;19.75;45.53
13241;BME280;6687;47.790;7.322;2022-08-14T06:28:15;98206.25;;;19.85;46.69
13241;BME280;6687;47.790;7.322;2022-08-14T06:30:43;98211.00;;;20.13;44.48
13241;BME280;6687;47.790;7.322;2022-08-14T06:33:09;98213.59;;;20.32;43.71
13241;BME280;6687;47.790;7.322;2022-08-14T06:35:36;98213.28;;;20.38;43.78
13241;BME280;6687;47.790;7.322;2022-08-14T06:38:03;98211.13;;;20.46;45.52
13241;BME280;6687;47.790;7.322;2022-08-14T06:40:32;98221.34;;;20.53;45.04
13241;BME280;6687;47.790;7.322;2022-08-14T06:43:01;98219.44;;;20.74;44.99
13241;BME280;6687;47.790;7.322;2022-08-14T06:45:29;98219.50;;;20.90;43.16
13241;BME280;6687;47.790;7.322;2022-08-14T06:47:58;98218.25;;;21.13;41.79
13241;BME280;6687;47.790;7.322;2022-08-14T06:50:26;98227.91;;;21.30;41.70
13241;BME280;6687;47.790;7.322;2022-08-14T06:52:53;98222.88;;;21.58;40.56
13241;BME280;6687;47.790;7.322;2022-08-14T06:55:20;98215.06;;;21.73;41.02
13241;BME280;6687;47.790;7.322;2022-08-14T06:57:49;98223.22;;;21.84;40.32
13241;BME280;6687;47.790;7.322;2022-08-14T07:00:18;98223.53;;;22.10;39.49
13241;BME280;6687;47.790;7.322;2022-08-14T07:02:45;98225.38;;;22.23;40.26
13241;BME280;6687;47.790;7.322;2022-08-14T07:05:32;98236.75;;;22.40;38.26
13241;BME280;6687;47.790;7.322;2022-08-14T07:08:16;98238.25;;;22.60;38.20
13241;BME280;6687;47.790;7.322;2022-08-14T07:10:43;98247.81;;;22.77;37.23
13241;BME280;6687;47.790;7.322;2022-08-14T07:13:11;98252.91;;;23.10;36.85
13241;BME280;6687;47.790;7.322;2022-08-14T07:15:38;98257.63;;;23.19;37.15
13241;BME280;6687;47.790;7.322;2022-08-14T07:18:07;98265.56;;;23.34;37.52
13241;BME280;6687;47.790;7.322;2022-08-14T07:20:35;98252.50;;;23.45;36.26
13241;BME280;6687;47.790;7.322;2022-08-14T07:23:03;98243.53;;;23.62;37.25
13241;BME280;6687;47.790;7.322;2022-08-14T07:25:31;98207.63;;;23.72;36.91
13241;BME280;6687;47.790;7.322;2022-08-14T07:27:59;98195.22;;;23.87;36.52
13241;BME280;6687;47.790;7.322;2022-08-14T07:30:26;98205.56;;;24.05;36.08
13241;BME280;6687;47.790;7.322;2022-08-14T07:32:53;98209.34;;;24.28;35.81
13241;BME280;6687;47.790;7.322;2022-08-14T07:35:20;98221.38;;;24.19;35.00
13241;BME280;6687;47.790;7.322;2022-08-14T07:37:48;98228.31;;;24.34;34.49
13241;BME280;6687;47.790;7.322;2022-08-14T07:40:15;98238.16;;;24.59;34.12
13241;BME280;6687;47.790;7.322;2022-08-14T07:42:42;98249.31;;;24.77;34.23
13241;BME280;6687;47.790;7.322;2022-08-14T07:45:10;98255.69;;;24.88;34.05
13241;BME280;6687;47.790;7.322;2022-08-14T07:47:40;98260.13;;;25.00;33.55
13241;BME280;6687;47.790;7.322;2022-08-14T07:50:11;98266.94;;;25.17;33.02
13241;BME280;6687;47.790;7.322;2022-08-14T07:52:39;98270.78;;;25.26;32.84
13241;BME280;6687;47.790;7.322;2022-08-14T07:55:09;98270.75;;;25.51;32.93
13241;BME280;6687;47.790;7.322;2022-08-14T07:57:37;98258.81;;;25.70;32.97
13241;BME280;6687;47.790;7.322;2022-08-14T08:00:07;98236.59;;;25.84;32.33
13241;BME280;6687;47.790;7.322;2022-08-14T08:02:36;98241.19;;;25.94;31.86
13241;BME280;6687;47.790;7.322;2022-08-14T08:05:05;98230.22;;;26.23;32.31
13241;BME280;6687;47.790;7.322;2022-08-14T08:07:33;98232.78;;;26.36;30.98
13241;BME280;6687;47.790;7.322;2022-08-14T08:10:05;98225.56;;;26.62;31.43
13241;BME280;6687;47.790;7.322;2022-08-14T08:12:54;98232.56;;;26.63;31.60
13241;BME280;6687;47.790;7.322;2022-08-14T08:15:22;98241.19;;;26.78;30.95
13241;BME280;6687;47.790;7.322;2022-08-14T08:17:49;98230.69;;;26.88;30.22
13241;BME280;6687;47.790;7.322;2022-08-14T08:20:17;98221.38;;;26.93;29.62
13241;BME280;6687;47.790;7.322;2022-08-14T08:22:44;98218.63;;;27.17;29.90
13241;BME280;6687;47.790;7.322;2022-08-14T08:25:11;98209.25;;;27.36;28.92
13241;BME280;6687;47.790;7.322;2022-08-14T08:27:38;98209.22;;;27.47;29.17
13241;BME280;6687;47.790;7.322;2022-08-14T08:30:08;98213.31;;;27.51;29.64
13241;BME280;6687;47.790;7.322;2022-08-14T08:32:40;98206.31;;;27.62;30.00
13241;BME280;6687;47.790;7.322;2022-08-14T08:35:09;98211.25;;;27.66;28.44
13241;BME280;6687;47.790;7.322;2022-08-14T08:37:41;98214.50;;;27.81;29.00
13241;BME280;6687;47.790;7.322;2022-08-14T08:40:09;98187.13;;;27.79;28.61
13241;BME280;6687;47.790;7.322;2022-08-14T08:42:36;98176.25;;;27.82;29.24
13241;BME280;6687;47.790;7.322;2022-08-14T08:45:03;98183.47;;;28.03;28.51
13241;BME280;6687;47.790;7.322;2022-08-14T08:47:38;98188.78;;;28.14;28.48
13241;BME280;6687;47.790;7.322;2022-08-14T08:50:18;98193.78;;;28.28;28.48
13241;BME280;6687;47.790;7.322;2022-08-14T08:52:53;98203.81;;;28.36;28.50
13241;BME280;6687;47.790;7.322;2022-08-14T08:55:28;98210.44;;;28.42;28.76
13241;BME280;6687;47.790;7.322;2022-08-14T08:57:57;98203.75;;;28.47;28.57
13241;BME280;6687;47.790;7.322;2022-08-14T09:00:24;98206.53;;;28.57;27.31
13241;BME280;6687;47.790;7.322;2022-08-14T09:02:57;98201.00;;;28.70;27.17
13241;BME280;6687;47.790;7.322;2022-08-14T09:05:24;98198.81;;;28.85;27.51
13241;BME280;6687;47.790;7.322;2022-08-14T09:07:51;98201.88;;;29.01;27.32
13241;BME280;6687;47.790;7.322;2022-08-14T09:10:18;98207.34;;;29.00;27.96
13241;BME280;6687;47.790;7.322;2022-08-14T09:12:45;98198.22;;;29.02;27.75
13241;BME280;6687;47.790;7.322;2022-08-14T09:15:12;98194.25;;;29.18;27.14
13241;BME280;6687;47.790;7.322;2022-08-14T09:17:41;98196.03;;;29.38;26.25
13241;BME280;6687;47.790;7.322;2022-08-14T09:20:10;98189.94;;;29.67;26.84
13241;BME280;6687;47.790;7.322;2022-08-14T09:22:39;98184.06;;;29.73;26.69
13241;BME280;6687;47.790;7.322;2022-08-14T09:25:07;98176.28;;;29.70;26.79
13241;BME280;6687;47.790;7.322;2022-08-14T09:27:35;98174.41;;;29.91;26.31
13241;BME280;6687;47.790;7.322;2022-08-14T09:30:02;98182.69;;;29.88;26.13
13241;BME280;6687;47.790;7.322;2022-08-14T09:32:45;98183.53;;;29.89;26.31
13241;BME280;6687;47.790;7.322;2022-08-14T09:35:23;98174.53;;;30.00;26.25
13241;BME280;6687;47.790;7.322;2022-08-14T09:38:01;98188.63;;;30.21;26.10
13241;BME280;6687;47.790;7.322;2022-08-14T09:40:40;98193.13;;;30.21;25.76
13241;BME280;6687;47.790;7.322;2022-08-14T09:43:20;98185.53;;;30.55;25.99
13241;BME280;6687;47.790;7.322;2022-08-14T09:45:51;98184.28;;;30.40;26.25
13241;BME280;6687;47.790;7.322;2022-08-14T09:48:23;98186.06;;;30.78;25.98
13241;BME280;6687;47.790;7.322;2022-08-14T09:50:53;98181.19;;;30.54;25.59
13241;BME280;6687;47.790;7.322;2022-08-14T09:53:34;98185.34;;;30.86;25.48
13241;BME280;6687;47.790;7.322;2022-08-14T09:56:01;98174.19;;;31.00;25.12
13241;BME280;6687;47.790;7.322;2022-08-14T09:58:35;98175.00;;;31.38;25.11
13241;BME280;6687;47.790;7.322;2022-08-14T10:01:08;98172.72;;;31.43;25.44
13241;BME280;6687;47.790;7.322;2022-08-14T10:03:37;98165.25;;;31.47;24.83
13241;BME280;6687;47.790;7.322;2022-08-14T10:06:08;98164.09;;;31.95;24.44
13241;BME280;6687;47.790;7.322;2022-08-14T10:08:42;98155.56;;;32.09;24.38
13241;BME280;6687;47.790;7.322;2022-08-14T10:11:14;98159.44;;;32.15;24.78
13241;BME280;6687;47.790;7.322;2022-08-14T10:13:44;98153.63;;;32.38;24.15
13241;BME280;6687;47.790;7.322;2022-08-14T10:16:11;98143.78;;;32.64;24.26
13241;BME280;6687;47.790;7.322;2022-08-14T10:18:39;98141.34;;;33.05;22.93
13241;BME280;6687;47.790;7.322;2022-08-14T10:21:11;98139.31;;;33.34;22.81
13241;BME280;6687;47.790;7.322;2022-08-14T10:23:44;98136.50;;;33.52;23.17
13241;BME280;6687;47.790;7.322;2022-08-14T10:26:15;98130.88;;;33.71;23.07
13241;BME280;6687;47.790;7.322;2022-08-14T10:28:44;98128.84;;;33.65;22.66
13241;BME280;6687;47.790;7.322;2022-08-14T10:31:19;98128.56;;;33.93;23.14
13241;BME280;6687;47.790;7.322;2022-08-14T10:33:58;98129.53;;;33.67;22.68
13241;BME280;6687;47.790;7.322;2022-08-14T10:36:28;98129.25;;;34.27;22.31
13241;BME280;6687;47.790;7.322;2022-08-14T10:38:59;98127.72;;;34.08;22.61
13241;BME280;6687;47.790;7.322;2022-08-14T10:41:39;98131.94;;;34.27;23.30
13241;BME280;6687;47.790;7.322;2022-08-14T10:44:09;98123.38;;;34.49;24.05
13241;BME280;6687;47.790;7.322;2022-08-14T10:46:41;98129.91;;;33.97;25.90
13241;BME280;6687;47.790;7.322;2022-08-14T10:49:16;98146.50;;;33.84;26.48
13241;BME280;6687;47.790;7.322;2022-08-14T10:51:56;98140.16;;;34.10;26.19
13241;BME280;6687;47.790;7.322;2022-08-14T10:54:35;98139.63;;;33.90;26.12
13241;BME280;6687;47.790;7.322;2022-08-14T10:57:13;98139.31;;;34.09;25.97
13241;BME280;6687;47.790;7.322;2022-08-14T10:59:41;98141.03;;;34.26;25.02
13241;BME280;6687;47.790;7.322;2022-08-14T11:02:21;98138.69;;;34.15;25.13
13241;BME280;6687;47.790;7.322;2022-08-14T11:05:01;98129.75;;;34.31;24.31
13241;BME280;6687;47.790;7.322;2022-08-14T11:07:30;98127.41;;;34.28;24.23
13241;BME280;6687;47.790;7.322;2022-08-14T11:09:59;98131.63;;;34.39;25.11
13241;BME280;6687;47.790;7.322;2022-08-14T11:12:38;98128.56;;;34.42;24.99
13241;BME280;6687;47.790;7.322;2022-08-14T11:15:06;98121.84;;;34.46;24.63
13241;BME280;6687;47.790;7.322;2022-08-14T11:17:34;98126.75;;;34.34;25.44
13241;BME280;6687;47.790;7.322;2022-08-14T11:20:03;98124.19;;;34.00;26.03
13241;BME280;6687;47.790;7.322;2022-08-14T11:22:32;98118.78;;;34.08;25.36
13241;BME280;6687;47.790;7.322;2022-08-14T11:25:01;98130.91;;;33.87;26.67
13241;BME280;6687;47.790;7.322;2022-08-14T11:27:31;98131.25;;;34.01;26.40
13241;BME280;6687;47.790;7.322;2022-08-14T11:30:00;98132.91;;;34.02;26.32
13241;BME280;6687;47.790;7.322;2022-08-14T11:32:28;98126.19;;;33.98;26.98
13241;BME280;6687;47.790;7.322;2022-08-14T11:34:55;98122.88;;;34.20;26.26
13241;BME280;6687;47.790;7.322;2022-08-14T11:37:22;98123.84;;;34.11;26.59
13241;BME280;6687;47.790;7.322;2022-08-14T11:39:50;98125.88;;;34.34;26.24
13241;BME280;6687;47.790;7.322;2022-08-14T11:42:22;98130.78;;;34.46;25.93
13241;BME280;6687;47.790;7.322;2022-08-14T11:44:49;98129.53;;;33.83;25.46
13241;BME280;6687;47.790;7.322;2022-08-14T11:47:17;98135.44;;;33.95;25.25
13241;BME280;6687;47.790;7.322;2022-08-14T11:49:45;98144.69;;;34.09;24.90
13241;BME280;6687;47.790;7.322;2022-08-14T11:52:13;98140.25;;;33.24;24.76
13241;BME280;6687;47.790;7.322;2022-08-14T11:54:40;98148.34;;;33.67;23.81
13241;BME280;6687;47.790;7.322;2022-08-14T11:57:14;98152.34;;;33.28;23.36
13241;BME280;6687;47.790;7.322;2022-08-14T11:59:41;98149.50;;;33.30;23.03
13241;BME280;6687;47.790;7.322;2022-08-14T12:02:10;98147.00;;;33.71;22.77
13241;BME280;6687;47.790;7.322;2022-08-14T12:04:47;98151.53;;;33.28;21.48
13241;BME280;6687;47.790;7.322;2022-08-14T12:07:15;98146.84;;;33.38;21.64
13241;BME280;6687;47.790;7.322;2022-08-14T12:09:43;98152.97;;;33.57;22.92
13241;BME280;6687;47.790;7.322;2022-08-14T12:12:16;98155.75;;;33.90;21.54
13241;BME280;6687;47.790;7.322;2022-08-14T12:14:48;98155.06;;;33.79;22.19
13241;BME280;6687;47.790;7.322;2022-08-14T12:17:18;98158.53;;;34.14;21.14
13241;BME280;6687;47.790;7.322;2022-08-14T12:19:46;98159.53;;;34.21;21.37
13241;BME280;6687;47.790;7.322;2022-08-14T12:22:13;98146.03;;;34.13;21.53
13241;BME280;6687;47.790;7.322;2022-08-14T12:24:41;98156.50;;;34.16;21.11
13241;BME280;6687;47.790;7.322;2022-08-14T12:27:08;98166.13;;;33.76;21.32
13241;BME280;6687;47.790;7.322;2022-08-14T12:29:49;98169.25;;;33.13;22.37
13241;BME280;6687;47.790;7.322;2022-08-14T12:32:16;98171.72;;;33.40;22.70
13241;BME280;6687;47.790;7.322;2022-08-14T12:34:51;98166.47;;;33.31;22.94
13241;BME280;6687;47.790;7.322;2022-08-14T12:37:18;98163.56;;;32.89;23.58
13241;BME280;6687;47.790;7.322;2022-08-14T12:39:45;98175.31;;;32.97;23.69
13241;BME280;6687;47.790;7.322;2022-08-14T12:42:12;98164.59;;;32.70;24.19
13241;BME280;6687;47.790;7.322;2022-08-14T12:44:41;98158.91;;;32.47;24.78
13241;BME280;6687;47.790;7.322;2022-08-14T12:47:10;98164.28;;;31.94;25.59
13241;BME280;6687;47.790;7.322;2022-08-14T12:49:47;98158.06;;;31.47;26.74
13241;BME280;6687;47.790;7.322;2022-08-14T12:52:27;98151.63;;;31.68;26.67
13241;BME280;6687;47.790;7.322;2022-08-14T12:54:57;98143.34;;;31.79;26.65
13241;BME280;6687;47.790;7.322;2022-08-14T12:57:32;98153.59;;;31.66;27.03
13241;BME280;6687;47.790;7.322;2022-08-14T13:00:06;98140.72;;;31.51;27.40
13241;BME280;6687;47.790;7.322;2022-08-14T13:02:36;98142.22;;;30.99;28.90
13241;BME280;6687;47.790;7.322;2022-08-14T13:05:04;98133.56;;;31.70;27.54
13241;BME280;6687;47.790;7.322;2022-08-14T13:07:31;98131.78;;;31.33;28.05
13241;BME280;6687;47.790;7.322;2022-08-14T13:09:57;98133.13;;;31.47;28.00
13241;BME280;6687;47.790;7.322;2022-08-14T13:12:24;98122.28;;;31.66;27.81
13241;BME280;6687;47.790;7.322;2022-08-14T13:14:56;98123.91;;;31.77;27.61
13241;BME280;6687;47.790;7.322;2022-08-14T13:17:26;98116.91;;;31.21;28.71
13241;BME280;6687;47.790;7.322;2022-08-14T13:19:56;98109.38;;;31.06;28.85
13241;BME280;6687;47.790;7.322;2022-08-14T13:22:23;98109.81;;;31.93;27.60
13241;BME280;6687;47.790;7.322;2022-08-14T13:24:53;98102.16;;;31.80;27.37
13241;BME280;6687;47.790;7.322;2022-08-14T13:27:21;98098.13;;;31.76;28.31
13241;BME280;6687;47.790;7.322;2022-08-14T13:29:50;98103.06;;;31.25;29.04
13241;BME280;6687;47.790;7.322;2022-08-14T13:32:18;98093.28;;;31.62;28.70
13241;BME280;6687;47.790;7.322;2022-08-14T13:34:48;98081.13;;;31.85;28.88
13241;BME280;6687;47.790;7.322;2022-08-14T13:37:15;98082.66;;;32.06;28.32
13241;BME280;6687;47.790;7.322;2022-08-14T13:39:46;98083.03;;;31.75;28.63
13241;BME280;6687;47.790;7.322;2022-08-14T13:42:16;98079.81;;;31.54;29.04
13241;BME280;6687;47.790;7.322;2022-08-14T13:44:47;98080.50;;;31.91;28.33
13241;BME280;6687;47.790;7.322;2022-08-14T13:47:14;98067.28;;;31.72;28.88
13241;BME280;6687;47.790;7.322;2022-08-14T13:49:44;98062.94;;;31.43;29.38
13241;BME280;6687;47.790;7.322;2022-08-14T13:52:17;98056.22;;;32.11;28.31
13241;BME280;6687;47.790;7.322;2022-08-14T13:54:45;98055.22;;;32.12;28.16
13241;BME280;6687;47.790;7.322;2022-08-14T13:57:13;98040.38;;;32.00;28.03
13241;BME280;6687;47.790;7.322;2022-08-14T13:59:44;98037.94;;;31.70;28.54
13241;BME280;6687;47.790;7.322;2022-08-14T14:02:11;98041.28;;;32.35;27.32
13241;BME280;6687;47.790;7.322;2022-08-14T14:04:41;98032.72;;;32.05;27.52
13241;BME280;6687;47.790;7.322;2022-08-14T14:07:09;98029.13;;;32.14;27.15
13241;BME280;6687;47.790;7.322;2022-08-14T14:09:42;98034.88;;;32.54;26.36
13241;BME280;6687;47.790;7.322;2022-08-14T14:12:10;98043.31;;;32.59;26.33
13241;BME280;6687;47.790;7.322;2022-08-14T14:14:38;98041.19;;;32.44;26.61
13241;BME280;6687;47.790;7.322;2022-08-14T14:17:07;98033.47;;;32.41;27.09
13241;BME280;6687;47.790;7.322;2022-08-14T14:19:34;98032.47;;;32.68;26.55
13241;BME280;6687;47.790;7.322;2022-08-14T14:22:01;98023.94;;;32.47;27.08
13241;BME280;6687;47.790;7.322;2022-08-14T14:24:30;98026.00;;;32.27;27.14
13241;BME280;6687;47.790;7.322;2022-08-14T14:27:01;98030.84;;;32.49;27.42
13241;BME280;6687;47.790;7.322;2022-08-14T14:29:30;98028.63;;;32.45;26.71
13241;BME280;6687;47.790;7.322;2022-08-14T14:31:57;98020.22;;;31.69;29.16
13241;BME280;6687;47.790;7.322;2022-08-14T14:34:26;98019.47;;;32.21;27.02
13241;BME280;6687;47.790;7.322;2022-08-14T14:36:54;98016.13;;;31.65;28.66
13241;BME280;6687;47.790;7.322;2022-08-14T14:39:23;98016.69;;;32.13;27.23
13241;BME280;6687;47.790;7.322;2022-08-14T14:41:53;98009.91;;;32.01;27.63
13241;BME280;6687;47.790;7.322;2022-08-14T14:44:24;98015.97;;;32.03;27.26
13241;BME280;6687;47.790;7.322;2022-08-14T14:46:52;98024.00;;;31.85;27.85
13241;BME280;6687;47.790;7.322;2022-08-14T14:49:21;98026.72;;;32.11;27.65
13241;BME280;6687;47.790;7.322;2022-08-14T14:51:48;98017.66;;;32.04;27.67
13241;BME280;6687;47.790;7.322;2022-08-14T14:54:16;98023.91;;;31.95;27.70
13241;BME280;6687;47.790;7.322;2022-08-14T14:56:44;98023.63;;;31.98;27.48
13241;BME280;6687;47.790;7.322;2022-08-14T14:59:12;98026.38;;;31.88;27.52
13241;BME280;6687;47.790;7.322;2022-08-14T15:01:43;98028.59;;;31.75;27.82
13241;BME280;6687;47.790;7.322;2022-08-14T15:04:13;98032.22;;;31.47;29.01
13241;BME280;6687;47.790;7.322;2022-08-14T15:06:41;98026.69;;;31.67;27.81
13241;BME280;6687;47.790;7.322;2022-08-14T15:09:08;98034.66;;;31.59;28.15
13241;BME280;6687;47.790;7.322;2022-08-14T15:11:34;98042.91;;;31.47;28.29
13241;BME280;6687;47.790;7.322;2022-08-14T15:14:01;98039.56;;;31.45;28.52
13241;BME280;6687;47.790;7.322;2022-08-14T15:16:29;98049.78;;;31.32;29.45
13241;BME280;6687;47.790;7.322;2022-08-14T15:18:57;98064.47;;;31.28;29.37
13241;BME280;6687;47.790;7.322;2022-08-14T15:21:23;98046.91;;;30.88;29.94
13241;BME280;6687;47.790;7.322;2022-08-14T15:23:50;98047.91;;;31.15;29.37
13241;BME280;6687;47.790;7.322;2022-08-14T15:26:18;98048.63;;;30.89;29.87
13241;BME280;6687;47.790;7.322;2022-08-14T15:28:45;98048.63;;;30.89;30.06
13241;BME280;6687;47.790;7.322;2022-08-14T15:31:12;98040.69;;;30.97;29.88
13241;BME280;6687;47.790;7.322;2022-08-14T15:33:39;98045.16;;;30.69;30.28
13241;BME280;6687;47.790;7.322;2022-08-14T15:36:25;98043.97;;;30.91;29.82
13241;BME280;6687;47.790;7.322;2022-08-14T15:38:53;98051.00;;;30.92;29.51
13241;BME280;6687;47.790;7.322;2022-08-14T15:41:20;98047.47;;;30.82;30.48
13241;BME280;6687;47.790;7.322;2022-08-14T15:43:46;98052.84;;;30.82;30.26
13241;BME280;6687;47.790;7.322;2022-08-14T15:46:14;98052.03;;;30.71;30.50
13241;BME280;6687;47.790;7.322;2022-08-14T15:48:43;98067.00;;;30.64;30.87
13241;BME280;6687;47.790;7.322;2022-08-14T15:51:09;98062.38;;;30.57;30.87
13241;BME280;6687;47.790;7.322;2022-08-14T15:53:37;98065.06;;;30.57;30.65
13241;BME280;6687;47.790;7.322;2022-08-14T15:56:05;98064.91;;;30.58;31.09
13241;BME280;6687;47.790;7.322;2022-08-14T15:58:32;98056.66;;;30.42;32.29
13241;BME280;6687;47.790;7.322;2022-08-14T16:00:59;98062.00;;;30.32;31.78
13241;BME280;6687;47.790;7.322;2022-08-14T16:03:43;98065.09;;;30.47;31.11
13241;BME280;6687;47.790;7.322;2022-08-14T16:06:12;98069.03;;;30.43;31.32
13241;BME280;6687;47.790;7.322;2022-08-14T16:08:41;98068.22;;;30.32;32.02
13241;BME280;6687;47.790;7.322;2022-08-14T16:11:08;98062.06;;;30.03;33.79
13241;BME280;6687;47.790;7.322;2022-08-14T16:13:36;98069.94;;;30.04;32.30
13241;BME280;6687;47.790;7.322;2022-08-14T16:16:08;98063.69;;;30.23;31.21
13241;BME280;6687;47.790;7.322;2022-08-14T16:18:36;98069.38;;;30.01;32.45
13241;BME280;6687;47.790;7.322;2022-08-14T16:21:06;98069.06;;;30.04;32.40
13241;BME280;6687;47.790;7.322;2022-08-14T16:23:34;98065.44;;;29.85;32.85
13241;BME280;6687;47.790;7.322;2022-08-14T16:26:02;98069.06;;;30.04;32.10
13241;BME280;6687;47.790;7.322;2022-08-14T16:28:30;98063.03;;;29.92;32.76
13241;BME280;6687;47.790;7.322;2022-08-14T16:30:58;98064.59;;;29.75;32.53
13241;BME280;6687;47.790;7.322;2022-08-14T16:33:25;98067.41;;;29.83;32.67
13241;BME280;6687;47.790;7.322;2022-08-14T16:35:53;98070.75;;;29.66;33.42
13241;BME280;6687;47.790;7.322;2022-08-14T16:38:21;98068.94;;;29.57;33.52
13241;BME280;6687;47.790;7.322;2022-08-14T16:40:52;98076.94;;;29.57;33.16
13241;BME280;6687;47.790;7.322;2022-08-14T16:43:42;98073.53;;;29.64;33.09
13241;BME280;6687;47.790;7.322;2022-08-14T16:46:12;98073.41;;;29.66;33.15
13241;BME280;6687;47.790;7.322;2022-08-14T16:48:39;98069.91;;;29.55;33.22
13241;BME280;6687;47.790;7.322;2022-08-14T16:51:06;98072.97;;;29.31;34.11
13241;BME280;6687;47.790;7.322;2022-08-14T16:53:35;98069.00;;;29.26;36.75
13241;BME280;6687;47.790;7.322;2022-08-14T16:56:09;98080.72;;;28.63;37.08
13241;BME280;6687;47.790;7.322;2022-08-14T16:58:36;98071.72;;;28.95;35.34
13241;BME280;6687;47.790;7.322;2022-08-14T17:01:16;98074.13;;;29.08;35.02
13241;BME280;6687;47.790;7.322;2022-08-14T17:04:00;98067.22;;;28.95;35.81
13241;BME280;6687;47.790;7.322;2022-08-14T17:06:39;98064.69;;;28.94;35.09
13241;BME280;6687;47.790;7.322;2022-08-14T17:09:25;98060.34;;;28.93;33.77
13241;BME280;6687;47.790;7.322;2022-08-14T17:11:54;98057.94;;;28.90;34.90
13241;BME280;6687;47.790;7.322;2022-08-14T17:14:23;98054.72;;;28.55;36.15
13241;BME280;6687;47.790;7.322;2022-08-14T17:16:56;98050.91;;;28.27;39.47
13241;BME280;6687;47.790;7.322;2022-08-14T17:19:23;98047.56;;;28.35;36.56
13241;BME280;6687;47.790;7.322;2022-08-14T17:21:51;98045.75;;;28.14;37.88
13241;BME280;6687;47.790;7.322;2022-08-14T17:24:19;98043.94;;;28.15;37.77
13241;BME280;6687;47.790;7.322;2022-08-14T17:26:48;98042.31;;;28.24;36.29
13241;BME280;6687;47.790;7.322;2022-08-14T17:29:18;98034.78;;;28.08;38.37
13241;BME280;6687;47.790;7.322;2022-08-14T17:31:47;98037.13;;;28.22;36.10
13241;BME280;6687;47.790;7.322;2022-08-14T17:34:15;98045.09;;;28.22;36.84
13241;BME280;6687;47.790;7.322;2022-08-14T17:36:46;98042.84;;;28.17;37.16
13241;BME280;6687;47.790;7.322;2022-08-14T17:39:17;98047.41;;;28.06;36.26
13241;BME280;6687;47.790;7.322;2022-08-14T17:41:46;98039.31;;;28.17;36.11
13241;BME280;6687;47.790;7.322;2022-08-14T17:44:19;98047.13;;;28.09;36.68
13241;BME280;6687;47.790;7.322;2022-08-14T17:46:48;98047.06;;;27.99;37.44
13241;BME280;6687;47.790;7.322;2022-08-14T17:49:20;98039.28;;;27.75;38.26
13241;BME280;6687;47.790;7.322;2022-08-14T17:52:03;98041.53;;;27.91;36.61
13241;BME280;6687;47.790;7.322;2022-08-14T17:54:32;98039.25;;;27.86;37.80
13241;BME280;6687;47.790;7.322;2022-08-14T17:57:02;98034.44;;;27.80;36.55
13241;BME280;6687;47.790;7.322;2022-08-14T17:59:31;98042.66;;;27.77;36.90
13241;BME280;6687;47.790;7.322;2022-08-14T18:01:58;98046.03;;;27.79;36.56
13241;BME280;6687;47.790;7.322;2022-08-14T18:04:29;98048.94;;;27.87;35.79
13241;BME280;6687;47.790;7.322;2022-08-14T18:06:58;98047.22;;;27.86;36.19
13241;BME280;6687;47.790;7.322;2022-08-14T18:09:26;98041.59;;;27.80;36.52
13241;BME280;6687;47.790;7.322;2022-08-14T18:11:54;98040.09;;;27.54;39.09
13241;BME280;6687;47.790;7.322;2022-08-14T18:14:23;98038.13;;;27.68;36.78
13241;BME280;6687;47.790;7.322;2022-08-14T18:16:51;98040.91;;;27.66;36.41
13241;BME280;6687;47.790;7.322;2022-08-14T18:19:19;98036.59;;;27.54;38.76
13241;BME280;6687;47.790;7.322;2022-08-14T18:21:51;98035.81;;;27.42;38.38
13241;BME280;6687;47.790;7.322;2022-08-14T18:24:18;98030.69;;;27.50;38.39
13241;BME280;6687;47.790;7.322;2022-08-14T18:26:46;98029.66;;;27.42;38.52
13241;BME280;6687;47.790;7.322;2022-08-14T18:29:14;98042.78;;;27.54;36.33
13241;BME280;6687;47.790;7.322;2022-08-14T18:31:42;98043.88;;;27.52;36.41
13241;BME280;6687;47.790;7.322;2022-08-14T18:34:11;98044.22;;;27.47;36.67
13241;BME280;6687;47.790;7.322;2022-08-14T18:36:41;98043.94;;;27.29;39.02
13241;BME280;6687;47.790;7.322;2022-08-14T18:39:30;98040.81;;;27.24;38.54
13241;BME280;6687;47.790;7.322;2022-08-14T18:45:08;98043.09;;;27.17;37.97
13241;BME280;6687;47.790;7.322;2022-08-14T18:47:35;98052.06;;;27.28;37.22
13241;BME280;6687;47.790;7.322;2022-08-14T18:50:08;98051.94;;;27.18;37.48
13241;BME280;6687;47.790;7.322;2022-08-14T18:52:41;98056.88;;;27.11;38.34
13241;BME280;6687;47.790;7.322;2022-08-14T18:58:17;98060.28;;;27.02;38.84
13241;BME280;6687;47.790;7.322;2022-08-14T19:00:46;98062.97;;;27.02;37.75
13241;BME280;6687;47.790;7.322;2022-08-14T19:06:48;98066.72;;;26.88;38.43
13241;BME280;6687;47.790;7.322;2022-08-14T19:09:49;98076.72;;;26.73;39.48
13241;BME280;6687;47.790;7.322;2022-08-14T19:12:54;98068.84;;;26.49;43.09
13241;BME280;6687;47.790;7.322;2022-08-14T19:15:25;98075.09;;;26.26;45.64
13241;BME280;6687;47.790;7.322;2022-08-14T19:17:53;98080.66;;;26.23;45.37
13241;BME280;6687;47.790;7.322;2022-08-14T19:20:20;98087.88;;;26.21;45.74
13241;BME280;6687;47.790;7.322;2022-08-14T19:22:50;98084.00;;;25.89;53.22
13241;BME280;6687;47.790;7.322;2022-08-14T19:25:55;98086.66;;;25.89;51.28
13241;BME280;6687;47.790;7.322;2022-08-14T19:28:24;98087.22;;;25.94;47.64
13241;BME280;6687;47.790;7.322;2022-08-14T19:33:54;98084.78;;;25.91;43.06
13241;BME280;6687;47.790;7.322;2022-08-14T19:36:24;98084.53;;;25.70;47.41
13241;BME280;6687;47.790;7.322;2022-08-14T19:38:55;98099.16;;;25.52;51.37
13241;BME280;6687;47.790;7.322;2022-08-14T19:41:26;98094.56;;;25.67;43.43
13241;BME280;6687;47.790;7.322;2022-08-14T19:43:54;98094.69;;;25.52;45.20
13241;BME280;6687;47.790;7.322;2022-08-14T19:46:30;98101.44;;;25.45;45.21
13241;BME280;6687;47.790;7.322;2022-08-14T19:48:58;98098.88;;;25.44;44.33
13241;BME280;6687;47.790;7.322;2022-08-14T19:51:27;98098.59;;;25.35;45.38